createdAt,value
2022-08-14T00:00:30.455Z,1009.00
2022-08-14T00:01:30.483Z,1009.00
2022-08-14T00:02:31.362Z,1009.00
2022-08-14T00:03:30.426Z,1009.01
2022-08-14T00:04:35.186Z,1009.00
2022-08-14T00:05:31.386Z,1008.99
2022-08-14T00:06:30.375Z,1008.98
2022-08-14T00:07:30.388Z,1009.01
2022-08-14T00:08:44.900Z,1008.96
2022-08-14T00:09:32.973Z,1008.99
2022-08-14T00:10:50.156Z,1008.96
2022-08-14T00:11:32.161Z,1008.98
2022-08-14T00:12:33.850Z,1009.00
2022-08-14T00:13:31.297Z,1008.99
2022-08-14T00:14:30.296Z,1008.95
2022-08-14T00:15:43.422Z,1008.95
2022-08-14T00:16:40.958Z,1008.97
2022-08-14T00:17:31.307Z,1008.96
2022-08-14T00:19:18.428Z,1008.94
2022-08-14T00:19:31.229Z,1008.91
2022-08-14T00:20:41.133Z,1008.89
2022-08-14T00:21:31.259Z,1008.95
2022-08-14T00:22:56.103Z,1008.89
2022-08-14T00:23:31.171Z,1008.90
2022-08-14T00:24:30.988Z,1008.90
2022-08-14T00:25:30.599Z,1008.90
2022-08-14T00:26:31.129Z,1008.91
2022-08-14T00:27:30.119Z,1008.87
2022-08-14T00:28:32.777Z,1008.84
2022-08-14T00:29:30.099Z,1008.84
2022-08-14T00:30:30.087Z,1008.83
2022-08-14T00:31:35.103Z,1008.83
2022-08-14T00:32:53.122Z,1008.84
2022-08-14T00:33:52.469Z,1008.83
2022-08-14T00:34:37.789Z,1008.77
2022-08-14T00:35:43.009Z,1008.84
2022-08-14T00:36:35.579Z,1008.81
2022-08-14T00:37:32.002Z,1008.78
2022-08-14T00:38:29.992Z,1008.78
2022-08-14T00:39:29.999Z,1008.75
2022-08-14T00:40:33.393Z,1008.82
2022-08-14T00:41:30.941Z,1008.76
2022-08-14T00:42:55.647Z,1008.72
2022-08-14T00:43:32.117Z,1008.82
2022-08-14T00:44:32.717Z,1008.77
2022-08-14T00:45:30.526Z,1008.75
2022-08-14T00:46:32.839Z,1008.72
2022-08-14T00:47:29.856Z,1008.70
2022-08-14T00:48:34.448Z,1008.70
2022-08-14T00:49:30.861Z,1008.72
2022-08-14T00:50:30.836Z,1008.71
2022-08-14T00:51:36.754Z,1008.70
2022-08-14T00:52:30.813Z,1008.67
2022-08-14T00:53:29.795Z,1008.64
2022-08-14T00:54:29.784Z,1008.65
2022-08-14T00:55:30.111Z,1008.65
2022-08-14T00:56:31.148Z,1008.60
2022-08-14T00:57:29.744Z,1008.64
2022-08-14T00:58:32.861Z,1008.58
2022-08-14T00:59:29.705Z,1008.66
2022-08-14T01:00:37.323Z,1008.63
2022-08-14T01:01:30.725Z,1008.61
2022-08-14T01:02:31.627Z,1008.60
2022-08-14T01:03:30.698Z,1008.66
2022-08-14T01:04:38.214Z,1008.64
2022-08-14T01:05:51.098Z,1008.57
2022-08-14T01:06:34.176Z,1008.57
2022-08-14T01:07:29.608Z,1008.58
2022-08-14T01:08:52.266Z,1008.56
2022-08-14T01:09:30.584Z,1008.52
2022-08-14T01:10:38.285Z,1008.57
2022-08-14T01:11:31.486Z,1008.56
2022-08-14T01:12:30.131Z,1008.57
2022-08-14T01:13:42.107Z,1008.50
2022-08-14T01:14:30.526Z,1008.55
2022-08-14T01:15:31.629Z,1008.58
2022-08-14T01:16:31.039Z,1008.57
2022-08-14T01:17:29.480Z,1008.58
2022-08-14T01:18:29.506Z,1008.57
2022-08-14T01:19:29.454Z,1008.51
2022-08-14T01:20:29.951Z,1008.57
2022-08-14T01:21:29.429Z,1008.59
2022-08-14T01:22:30.409Z,1008.60
2022-08-14T01:23:41.817Z,1008.58
2022-08-14T01:24:34.334Z,1008.59
2022-08-14T01:25:29.369Z,1008.57
2022-08-14T01:26:34.841Z,1008.57
2022-08-14T01:27:30.350Z,1008.60
2022-08-14T01:28:46.331Z,1008.57
2022-08-14T01:29:46.410Z,1008.55
2022-08-14T01:30:30.699Z,1008.56
2022-08-14T01:31:30.434Z,1008.56
2022-08-14T01:32:30.154Z,1008.51
2022-08-14T01:33:29.290Z,1008.54
2022-08-14T01:35:19.977Z,1008.55
2022-08-14T01:36:03.928Z,1008.54
2022-08-14T01:36:30.233Z,1008.53
2022-08-14T01:37:31.512Z,1008.55
2022-08-14T01:38:29.212Z,1008.55
2022-08-14T01:39:29.252Z,1008.51
2022-08-14T01:40:33.030Z,1008.53
2022-08-14T01:41:31.641Z,1008.55
2022-08-14T01:42:31.395Z,1008.54
2022-08-14T01:43:30.151Z,1008.52
2022-08-14T01:44:32.907Z,1008.54
2022-08-14T01:45:29.111Z,1008.53
2022-08-14T01:46:33.459Z,1008.52
2022-08-14T01:47:33.703Z,1008.55
2022-08-14T01:48:30.081Z,1008.58
2022-08-14T01:49:33.454Z,1008.54
2022-08-14T01:50:30.043Z,1008.56
2022-08-14T01:51:29.030Z,1008.56
2022-08-14T01:52:34.111Z,1008.55
2022-08-14T01:53:33.404Z,1008.57
2022-08-14T01:54:37.779Z,1008.57
2022-08-14T01:55:29.992Z,1008.51
2022-08-14T01:56:37.149Z,1008.51
2022-08-14T01:57:49.502Z,1008.49
2022-08-14T01:58:30.047Z,1008.50
2022-08-14T01:59:38.148Z,1008.51
2022-08-14T02:00:29.926Z,1008.48
2022-08-14T02:01:29.947Z,1008.48
2022-08-14T02:02:28.887Z,1008.52
2022-08-14T02:03:30.727Z,1008.48
2022-08-14T02:04:55.900Z,1008.52
2022-08-14T02:05:34.986Z,1008.46
2022-08-14T02:06:32.992Z,1008.44
2022-08-14T02:07:44.694Z,1008.49
2022-08-14T02:08:35.019Z,1008.46
2022-08-14T02:09:29.818Z,1008.46
2022-08-14T02:10:28.802Z,1008.46
2022-08-14T02:11:29.052Z,1008.46
2022-08-14T02:12:29.191Z,1008.49
2022-08-14T02:13:28.760Z,1008.46
2022-08-14T02:14:31.159Z,1008.45
2022-08-14T02:15:28.729Z,1008.44
2022-08-14T02:16:28.720Z,1008.47
2022-08-14T02:17:28.700Z,1008.46
2022-08-14T02:18:28.728Z,1008.45
2022-08-14T02:19:28.745Z,1008.43
2022-08-14T02:20:28.662Z,1008.45
2022-08-14T02:21:28.672Z,1008.38
2022-08-14T02:22:33.333Z,1008.38
2022-08-14T02:23:32.488Z,1008.32
2022-08-14T02:24:39.827Z,1008.34
2022-08-14T02:25:29.942Z,1008.35
2022-08-14T02:26:29.821Z,1008.31
2022-08-14T02:28:24.093Z,1008.34
2022-08-14T02:28:57.913Z,1008.29
2022-08-14T02:29:56.199Z,1008.33
2022-08-14T02:30:31.355Z,1008.28
2022-08-14T02:31:42.570Z,1008.28
2022-08-14T02:32:30.283Z,1008.29
2022-08-14T02:33:29.613Z,1008.28
2022-08-14T02:34:28.483Z,1008.32
2022-08-14T02:35:33.105Z,1008.28
2022-08-14T02:37:05.063Z,1008.28
2022-08-14T02:37:46.969Z,1008.22
2022-08-14T02:38:34.185Z,1008.25
2022-08-14T02:39:29.475Z,1008.27
2022-08-14T02:40:32.241Z,1008.25
2022-08-14T02:41:31.843Z,1008.28
2022-08-14T02:42:37.356Z,1008.24
2022-08-14T02:43:36.733Z,1008.22
2022-08-14T02:44:29.930Z,1008.18
2022-08-14T02:45:32.988Z,1008.16
2022-08-14T02:46:32.351Z,1008.23
2022-08-14T02:47:28.337Z,1008.18
2022-08-14T02:49:02.532Z,1008.19
2022-08-14T02:49:33.110Z,1008.18
2022-08-14T02:50:29.307Z,1008.16
2022-08-14T02:51:30.422Z,1008.18
2022-08-14T02:52:57.193Z,1008.16
2022-08-14T02:53:29.681Z,1008.16
2022-08-14T02:54:28.216Z,1008.13
2022-08-14T02:55:28.216Z,1008.20
2022-08-14T02:56:30.077Z,1008.18
2022-08-14T02:57:39.723Z,1008.22
2022-08-14T02:58:30.607Z,1008.20
2022-08-14T02:59:28.801Z,1008.20
2022-08-14T03:00:28.146Z,1008.12
2022-08-14T03:01:31.356Z,1008.16
2022-08-14T03:02:48.602Z,1008.12
2022-08-14T03:03:31.876Z,1008.10
2022-08-14T03:04:29.119Z,1008.06
2022-08-14T03:05:28.102Z,1008.07
2022-08-14T03:06:58.074Z,1008.06
2022-08-14T03:07:29.112Z,1008.08
2022-08-14T03:08:28.065Z,1008.06
2022-08-14T03:09:42.009Z,1008.08
2022-08-14T03:10:33.248Z,1008.09
2022-08-14T03:11:35.156Z,1008.08
2022-08-14T03:12:32.445Z,1008.13
2022-08-14T03:13:27.969Z,1008.09
2022-08-14T03:14:27.958Z,1008.09
2022-08-14T03:15:28.005Z,1008.12
2022-08-14T03:16:27.939Z,1008.09
2022-08-14T03:17:32.026Z,1008.03
2022-08-14T03:18:31.754Z,1008.03
2022-08-14T03:19:27.902Z,1008.02
2022-08-14T03:20:27.911Z,1008.03
2022-08-14T03:21:27.896Z,1007.98
2022-08-14T03:22:29.896Z,1007.97
2022-08-14T03:23:27.859Z,1008.01
2022-08-14T03:24:27.830Z,1008.00
2022-08-14T03:25:27.813Z,1008.06
2022-08-14T03:26:29.597Z,1008.06
2022-08-14T03:27:35.551Z,1008.07
2022-08-14T03:28:33.132Z,1008.05
2022-08-14T03:29:27.794Z,1008.04
2022-08-14T03:30:38.931Z,1008.06
2022-08-14T03:31:29.267Z,1008.06
2022-08-14T03:32:30.545Z,1008.07
2022-08-14T03:33:38.306Z,1008.04
2022-08-14T03:34:52.670Z,1008.04
2022-08-14T03:35:30.941Z,1008.07
2022-08-14T03:37:37.336Z,1008.06
2022-08-14T03:39:10.283Z,1008.08
2022-08-14T03:39:14.530Z,1008.06
2022-08-14T03:39:28.752Z,1008.08
2022-08-14T03:40:27.630Z,1008.07
2022-08-14T03:41:27.609Z,1008.03
2022-08-14T03:42:35.778Z,1008.09
2022-08-14T03:43:32.677Z,1008.07
2022-08-14T03:45:19.769Z,1008.01
2022-08-14T03:45:34.493Z,1007.99
2022-08-14T03:46:46.636Z,1008.00
2022-08-14T03:47:33.666Z,1007.97
2022-08-14T03:48:30.986Z,1007.99
2022-08-14T03:49:29.252Z,1007.97
2022-08-14T03:50:31.467Z,1007.94
2022-08-14T03:51:27.524Z,1007.93
2022-08-14T03:52:38.453Z,1007.94
2022-08-14T03:53:28.453Z,1007.98
2022-08-14T03:54:27.442Z,1007.93
2022-08-14T03:55:27.433Z,1007.91
2022-08-14T03:56:27.423Z,1007.89
2022-08-14T03:57:27.413Z,1007.93
2022-08-14T03:58:36.600Z,1007.90
2022-08-14T03:59:28.649Z,1007.91
2022-08-14T04:00:40.423Z,1007.92
2022-08-14T04:01:29.331Z,1007.95
2022-08-14T04:02:33.330Z,1007.94
2022-08-14T04:03:28.327Z,1007.94
2022-08-14T04:04:27.315Z,1007.92
2022-08-14T04:05:27.306Z,1007.95
2022-08-14T04:06:28.492Z,1007.92
2022-08-14T04:07:27.295Z,1007.90
2022-08-14T04:08:30.559Z,1007.89
2022-08-14T04:09:27.352Z,1007.88
2022-08-14T04:10:32.386Z,1007.83
2022-08-14T04:11:28.224Z,1007.86
2022-08-14T04:12:27.237Z,1007.85
2022-08-14T04:13:27.884Z,1007.83
2022-08-14T04:14:27.181Z,1007.85
2022-08-14T04:15:27.169Z,1007.82
2022-08-14T04:16:31.643Z,1007.87
2022-08-14T04:17:27.148Z,1007.87
2022-08-14T04:18:27.138Z,1007.88
2022-08-14T04:19:28.138Z,1007.85
2022-08-14T04:20:28.110Z,1007.86
2022-08-14T04:21:27.098Z,1007.86
2022-08-14T04:22:27.089Z,1007.87
2022-08-14T04:23:32.915Z,1007.89
2022-08-14T04:24:28.098Z,1007.87
2022-08-14T04:25:27.046Z,1007.90
2022-08-14T04:26:42.401Z,1007.88
2022-08-14T04:27:28.048Z,1007.91
2022-08-14T04:29:05.331Z,1007.87
2022-08-14T04:29:28.000Z,1007.90
2022-08-14T04:30:33.004Z,1007.92
2022-08-14T04:32:57.772Z,1007.85
2022-08-14T04:32:58.270Z,1007.88
2022-08-14T04:33:28.007Z,1007.85
2022-08-14T04:34:27.836Z,1007.85
2022-08-14T04:35:55.165Z,1007.86
2022-08-14T04:36:27.893Z,1007.85
2022-08-14T04:37:26.881Z,1007.87
2022-08-14T04:38:36.796Z,1007.87
2022-08-14T04:39:27.934Z,1007.87
2022-08-14T04:40:27.902Z,1007.84
2022-08-14T04:41:30.300Z,1007.83
2022-08-14T04:42:26.823Z,1007.87
2022-08-14T04:43:26.813Z,1007.86
2022-08-14T04:44:36.758Z,1007.84
2022-08-14T04:45:29.669Z,1007.76
2022-08-14T04:46:56.073Z,1007.76
2022-08-14T04:47:30.729Z,1007.75
2022-08-14T04:48:39.999Z,1007.77
2022-08-14T04:49:27.762Z,1007.78
2022-08-14T04:50:33.668Z,1007.78
2022-08-14T04:51:27.752Z,1007.77
2022-08-14T04:52:26.694Z,1007.77
2022-08-14T04:53:35.492Z,1007.77
2022-08-14T04:54:27.675Z,1007.77
2022-08-14T04:55:27.700Z,1007.77
2022-08-14T04:56:33.640Z,1007.72
2022-08-14T04:57:27.636Z,1007.73
2022-08-14T04:58:32.084Z,1007.69
2022-08-14T04:59:27.748Z,1007.76
2022-08-14T05:00:26.588Z,1007.72
2022-08-14T05:01:26.646Z,1007.71
2022-08-14T05:02:26.592Z,1007.71
2022-08-14T05:03:26.555Z,1007.70
2022-08-14T05:04:26.535Z,1007.72
2022-08-14T05:05:26.545Z,1007.70
2022-08-14T05:06:37.787Z,1007.63
2022-08-14T05:07:53.894Z,1007.64
2022-08-14T05:08:43.614Z,1007.65
2022-08-14T05:09:29.161Z,1007.59
2022-08-14T05:10:32.281Z,1007.63
2022-08-14T05:11:27.449Z,1007.62
2022-08-14T05:13:11.819Z,1007.64
2022-08-14T05:13:30.229Z,1007.64
2022-08-14T05:14:45.498Z,1007.64
2022-08-14T05:15:27.398Z,1007.63
2022-08-14T05:16:26.397Z,1007.65
2022-08-14T05:17:32.033Z,1007.64
2022-08-14T05:19:17.082Z,1007.62
2022-08-14T05:19:29.110Z,1007.62
2022-08-14T05:21:55.430Z,1007.64
2022-08-14T05:21:57.281Z,1007.61
2022-08-14T05:22:27.360Z,1007.57
2022-08-14T05:23:26.301Z,1007.61
2022-08-14T05:24:26.296Z,1007.53
2022-08-14T05:25:30.632Z,1007.54
2022-08-14T05:26:27.261Z,1007.48
2022-08-14T05:27:26.251Z,1007.52
2022-08-14T05:28:26.233Z,1007.54
2022-08-14T05:29:26.222Z,1007.54
2022-08-14T05:30:26.221Z,1007.51
2022-08-14T05:31:39.739Z,1007.50
2022-08-14T05:32:28.186Z,1007.49
2022-08-14T05:33:26.169Z,1007.47
2022-08-14T05:34:28.953Z,1007.46
2022-08-14T05:35:27.152Z,1007.49
2022-08-14T05:36:27.100Z,1007.49
2022-08-14T05:37:26.164Z,1007.52
2022-08-14T05:38:31.058Z,1007.49
2022-08-14T05:39:27.138Z,1007.49
2022-08-14T05:40:26.092Z,1007.53
2022-08-14T05:41:43.651Z,1007.50
2022-08-14T05:42:31.882Z,1007.45
2022-08-14T05:43:40.994Z,1007.47
2022-08-14T05:44:30.288Z,1007.43
2022-08-14T05:45:26.032Z,1007.43
2022-08-14T05:46:26.010Z,1007.42
2022-08-14T05:47:33.707Z,1007.39
2022-08-14T05:48:33.506Z,1007.30
2022-08-14T05:49:32.814Z,1007.29
2022-08-14T05:50:27.022Z,1007.25
2022-08-14T05:51:25.965Z,1007.24
2022-08-14T05:52:33.879Z,1007.27
2022-08-14T05:53:26.923Z,1007.28
2022-08-14T05:54:27.166Z,1007.24
2022-08-14T05:55:25.904Z,1007.28
2022-08-14T05:56:25.895Z,1007.29
2022-08-14T05:57:25.874Z,1007.31
2022-08-14T05:58:33.809Z,1007.35
2022-08-14T05:59:36.872Z,1007.36
2022-08-14T06:00:29.382Z,1007.38
2022-08-14T06:01:26.850Z,1007.38
2022-08-14T06:02:25.805Z,1007.40
2022-08-14T06:03:26.286Z,1007.41
2022-08-14T06:04:25.783Z,1007.40
2022-08-14T06:05:28.977Z,1007.37
2022-08-14T06:06:26.155Z,1007.39
2022-08-14T06:07:25.757Z,1007.37
2022-08-14T06:08:36.546Z,1007.36
2022-08-14T06:09:26.717Z,1007.35
2022-08-14T06:10:25.729Z,1007.27
2022-08-14T06:11:31.063Z,1007.33
2022-08-14T06:12:56.060Z,1007.30
2022-08-14T06:13:31.525Z,1007.32
2022-08-14T06:14:26.706Z,1007.34
2022-08-14T06:15:29.630Z,1007.24
2022-08-14T06:16:25.725Z,1007.27
2022-08-14T06:17:26.186Z,1007.31
2022-08-14T06:18:25.599Z,1007.28
2022-08-14T06:19:26.591Z,1007.30
2022-08-14T06:20:25.577Z,1007.29
2022-08-14T06:21:26.009Z,1007.26
2022-08-14T06:22:25.550Z,1007.29
2022-08-14T06:23:25.552Z,1007.29
2022-08-14T06:24:25.989Z,1007.27
2022-08-14T06:25:26.066Z,1007.30
2022-08-14T06:26:30.033Z,1007.31
2022-08-14T06:27:26.480Z,1007.31
2022-08-14T06:28:27.895Z,1007.33
2022-08-14T06:29:25.451Z,1007.32
2022-08-14T06:30:30.401Z,1007.31
2022-08-14T06:31:26.460Z,1007.29
2022-08-14T06:32:37.742Z,1007.26
2022-08-14T06:35:01.202Z,1007.22
2022-08-14T06:35:11.097Z,1007.19
2022-08-14T06:35:26.552Z,1007.22
2022-08-14T06:36:25.381Z,1007.21
2022-08-14T06:37:25.400Z,1007.21
2022-08-14T06:38:25.331Z,1007.23
2022-08-14T06:39:36.602Z,1007.20
2022-08-14T06:40:27.686Z,1007.18
2022-08-14T06:41:58.289Z,1007.18
2022-08-14T06:42:32.955Z,1007.19
2022-08-14T06:43:31.825Z,1007.17
2022-08-14T06:44:30.592Z,1007.17
2022-08-14T06:45:26.362Z,1007.17
2022-08-14T06:46:34.412Z,1007.17
2022-08-14T06:47:26.224Z,1007.14
2022-08-14T06:48:25.215Z,1007.12
2022-08-14T06:49:25.203Z,1007.15
2022-08-14T06:50:28.029Z,1007.15
2022-08-14T06:51:25.175Z,1007.15
2022-08-14T06:52:26.175Z,1007.11
2022-08-14T06:53:27.681Z,1007.11
2022-08-14T06:54:31.492Z,1007.11
2022-08-14T06:55:28.126Z,1007.13
2022-08-14T06:56:25.112Z,1007.14
2022-08-14T06:57:25.086Z,1007.12
2022-08-14T06:58:29.302Z,1007.15
2022-08-14T06:59:26.067Z,1007.14
2022-08-14T07:00:26.996Z,1007.13
2022-08-14T07:01:26.974Z,1007.11
2022-08-14T07:02:25.047Z,1007.10
2022-08-14T07:03:25.031Z,1007.07
2022-08-14T07:04:25.018Z,1007.03
2022-08-14T07:05:25.079Z,1007.05
2022-08-14T07:06:45.504Z,1007.02
2022-08-14T07:07:28.689Z,1007.03
2022-08-14T07:08:25.728Z,1007.05
2022-08-14T07:09:24.940Z,1007.02
2022-08-14T07:10:25.499Z,1007.04
2022-08-14T07:11:24.915Z,1007.03
2022-08-14T07:12:52.002Z,1006.99
2022-08-14T07:13:25.899Z,1006.97
2022-08-14T07:14:24.876Z,1006.93
2022-08-14T07:15:25.007Z,1006.90
2022-08-14T07:16:27.303Z,1006.94
2022-08-14T07:17:24.868Z,1006.89
2022-08-14T07:18:24.860Z,1006.94
2022-08-14T07:19:24.812Z,1006.88
2022-08-14T07:20:30.840Z,1006.91
2022-08-14T07:21:25.791Z,1006.92
2022-08-14T07:22:24.802Z,1006.89
2022-08-14T07:23:25.827Z,1006.88
2022-08-14T07:24:31.193Z,1006.90
2022-08-14T07:25:32.237Z,1006.93
2022-08-14T07:26:25.720Z,1006.89
2022-08-14T07:27:24.711Z,1006.88
2022-08-14T07:28:24.700Z,1006.85
2022-08-14T07:29:28.018Z,1006.88
2022-08-14T07:30:33.702Z,1006.89
2022-08-14T07:31:25.693Z,1006.86
2022-08-14T07:32:33.874Z,1006.85
2022-08-14T07:33:29.971Z,1006.87
2022-08-14T07:34:36.034Z,1006.83
2022-08-14T07:35:25.684Z,1006.88
2022-08-14T07:36:29.970Z,1006.85
2022-08-14T07:37:25.582Z,1006.87
2022-08-14T07:38:24.585Z,1006.87
2022-08-14T07:39:27.974Z,1006.86
2022-08-14T07:40:27.469Z,1006.88
2022-08-14T07:41:33.518Z,1006.88
2022-08-14T07:42:25.525Z,1006.88
2022-08-14T07:43:24.505Z,1006.88
2022-08-14T07:44:32.482Z,1006.87
2022-08-14T07:45:25.484Z,1006.86
2022-08-14T07:46:28.434Z,1006.83
2022-08-14T07:47:24.493Z,1006.74
2022-08-14T07:48:24.809Z,1006.73
2022-08-14T07:49:24.551Z,1006.75
2022-08-14T07:50:24.427Z,1006.75
2022-08-14T07:51:26.112Z,1006.78
2022-08-14T07:52:30.992Z,1006.77
2022-08-14T07:53:25.375Z,1006.71
2022-08-14T07:54:29.859Z,1006.71
2022-08-14T07:55:25.417Z,1006.73
2022-08-14T07:56:46.958Z,1006.70
2022-08-14T07:57:25.364Z,1006.69
2022-08-14T07:58:34.318Z,1006.67
2022-08-14T07:59:41.180Z,1006.69
2022-08-14T08:00:30.033Z,1006.71
2022-08-14T08:01:25.267Z,1006.71
2022-08-14T08:02:24.267Z,1006.68
2022-08-14T08:03:24.328Z,1006.66
2022-08-14T08:04:25.274Z,1006.69
2022-08-14T08:05:24.219Z,1006.72
2022-08-14T08:06:24.218Z,1006.60
2022-08-14T08:07:24.259Z,1006.59
2022-08-14T08:08:26.942Z,1006.55
2022-08-14T08:09:24.168Z,1006.58
2022-08-14T08:10:46.334Z,1006.60
2022-08-14T08:11:25.157Z,1006.59
2022-08-14T08:12:29.617Z,1006.54
2022-08-14T08:13:25.131Z,1006.55
2022-08-14T08:14:24.120Z,1006.55
2022-08-14T08:15:24.110Z,1006.54
2022-08-14T08:16:24.147Z,1006.56
2022-08-14T08:17:24.300Z,1006.56
2022-08-14T08:18:27.536Z,1006.58
2022-08-14T08:19:25.050Z,1006.53
2022-08-14T08:20:24.029Z,1006.55
2022-08-14T08:21:27.086Z,1006.51
2022-08-14T08:22:27.388Z,1006.50
2022-08-14T08:23:30.290Z,1006.51
2022-08-14T08:24:24.971Z,1006.55
2022-08-14T08:25:23.961Z,1006.49
2022-08-14T08:26:23.953Z,1006.43
2022-08-14T08:27:23.960Z,1006.46
2022-08-14T08:28:25.426Z,1006.48
2022-08-14T08:29:28.714Z,1006.44
2022-08-14T08:30:24.914Z,1006.48
2022-08-14T08:31:23.954Z,1006.44
2022-08-14T08:32:30.010Z,1006.44
2022-08-14T08:33:24.884Z,1006.36
2022-08-14T08:34:24.257Z,1006.38
2022-08-14T08:35:23.900Z,1006.42
2022-08-14T08:36:23.833Z,1006.41
2022-08-14T08:37:25.155Z,1006.43
2022-08-14T08:39:18.226Z,1006.41
2022-08-14T08:39:24.869Z,1006.37
2022-08-14T08:40:31.278Z,1006.39
2022-08-14T08:41:24.766Z,1006.34
2022-08-14T08:42:24.628Z,1006.35
2022-08-14T08:43:24.757Z,1006.31
2022-08-14T08:44:32.747Z,1006.35
2022-08-14T08:45:24.715Z,1006.34
2022-08-14T08:46:24.331Z,1006.31
2022-08-14T08:47:23.687Z,1006.38
2022-08-14T08:48:35.591Z,1006.36
2022-08-14T08:49:24.698Z,1006.28
2022-08-14T08:50:31.635Z,1006.27
2022-08-14T08:51:24.999Z,1006.28
2022-08-14T08:52:31.589Z,1006.36
2022-08-14T08:53:24.610Z,1006.33
2022-08-14T08:54:26.672Z,1006.34
2022-08-14T08:55:24.600Z,1006.29
2022-08-14T08:56:30.532Z,1006.19
2022-08-14T08:57:24.571Z,1006.26
2022-08-14T08:58:25.064Z,1006.21
2022-08-14T08:59:27.025Z,1006.22
2022-08-14T09:00:26.280Z,1006.19
2022-08-14T09:01:23.612Z,1006.20
2022-08-14T09:02:26.093Z,1006.19
2022-08-14T09:03:23.487Z,1006.16
2022-08-14T09:04:23.480Z,1006.13
2022-08-14T09:05:23.478Z,1006.01
2022-08-14T09:07:00.260Z,1006.08
2022-08-14T09:07:24.531Z,1006.05
2022-08-14T09:08:31.610Z,1006.01
2022-08-14T09:09:24.454Z,1006.04
2022-08-14T09:10:23.413Z,1006.05
2022-08-14T09:11:23.462Z,1006.04
2022-08-14T09:12:23.389Z,1006.03
2022-08-14T09:13:23.375Z,1006.00
2022-08-14T09:14:23.357Z,1006.01
2022-08-14T09:15:24.049Z,1005.99
2022-08-14T09:16:23.720Z,1005.98
2022-08-14T09:17:25.995Z,1006.04
2022-08-14T09:18:23.362Z,1005.95
2022-08-14T09:19:23.288Z,1005.98
2022-08-14T09:20:26.479Z,1005.95
2022-08-14T09:21:25.088Z,1005.95
2022-08-14T09:22:36.482Z,1005.92
2022-08-14T09:23:34.620Z,1005.92
2022-08-14T09:24:28.442Z,1005.92
2022-08-14T09:26:00.083Z,1005.92
2022-08-14T09:26:24.214Z,1005.88
2022-08-14T09:27:23.457Z,1005.90
2022-08-14T09:28:24.232Z,1005.87
2022-08-14T09:29:23.771Z,1005.89
2022-08-14T09:30:32.095Z,1005.87
2022-08-14T09:31:24.147Z,1005.89
2022-08-14T09:32:58.619Z,1005.86
2022-08-14T09:33:24.147Z,1005.86
2022-08-14T09:34:27.839Z,1005.86
2022-08-14T09:35:24.086Z,1005.84
2022-08-14T09:36:23.087Z,1005.83
2022-08-14T09:37:23.106Z,1005.86
2022-08-14T09:38:26.084Z,1005.83
2022-08-14T09:39:23.733Z,1005.85
2022-08-14T09:40:23.137Z,1005.82
2022-08-14T09:41:23.028Z,1005.83
2022-08-14T09:42:33.536Z,1005.86
2022-08-14T09:43:24.012Z,1005.84
2022-08-14T09:44:22.983Z,1005.87
2022-08-14T09:45:22.981Z,1005.89
2022-08-14T09:46:25.765Z,1005.86
2022-08-14T09:47:22.961Z,1005.80
2022-08-14T09:48:27.912Z,1005.79
2022-08-14T09:49:23.919Z,1005.78
2022-08-14T09:50:23.830Z,1005.80
2022-08-14T09:51:22.911Z,1005.74
2022-08-14T09:52:33.567Z,1005.73
2022-08-14T09:53:23.890Z,1005.70
2022-08-14T09:54:24.052Z,1005.74
2022-08-14T09:55:22.852Z,1005.65
2022-08-14T09:56:30.161Z,1005.73
2022-08-14T09:57:23.824Z,1005.70
2022-08-14T09:58:24.667Z,1005.72
2022-08-14T09:59:22.813Z,1005.71
2022-08-14T10:00:29.198Z,1005.70
2022-08-14T10:01:24.789Z,1005.63
2022-08-14T10:02:22.817Z,1005.59
2022-08-14T10:03:22.752Z,1005.69
2022-08-14T10:04:34.209Z,1005.68
2022-08-14T10:05:23.735Z,1005.61
2022-08-14T10:06:22.712Z,1005.55
2022-08-14T10:07:22.704Z,1005.65
2022-08-14T10:08:26.445Z,1005.62
2022-08-14T10:09:24.811Z,1005.57
2022-08-14T10:10:23.361Z,1005.55
2022-08-14T10:11:23.303Z,1005.55
2022-08-14T10:12:29.062Z,1005.48
2022-08-14T10:13:23.742Z,1005.47
2022-08-14T10:14:29.345Z,1005.50
2022-08-14T10:15:23.868Z,1005.46
2022-08-14T10:16:27.328Z,1005.47
2022-08-14T10:17:23.577Z,1005.44
2022-08-14T10:18:22.566Z,1005.49
2022-08-14T10:19:22.548Z,1005.42
2022-08-14T10:20:40.846Z,1005.42
2022-08-14T10:21:23.515Z,1005.44
2022-08-14T10:23:12.425Z,1005.45
2022-08-14T10:23:23.578Z,1005.46
2022-08-14T10:24:22.477Z,1005.44
2022-08-14T10:25:22.558Z,1005.41
2022-08-14T10:26:28.198Z,1005.45
2022-08-14T10:27:23.486Z,1005.40
2022-08-14T10:28:39.601Z,1005.41
2022-08-14T10:29:23.851Z,1005.38
2022-08-14T10:30:25.549Z,1005.36
2022-08-14T10:31:25.619Z,1005.35
2022-08-14T10:32:29.125Z,1005.30
2022-08-14T10:33:23.411Z,1005.33
2022-08-14T10:34:29.050Z,1005.31
2022-08-14T10:35:27.697Z,1005.33
2022-08-14T10:36:37.272Z,1005.32
2022-08-14T10:37:23.825Z,1005.30
2022-08-14T10:38:22.301Z,1005.27
2022-08-14T10:39:22.317Z,1005.25
2022-08-14T10:40:38.292Z,1005.30
2022-08-14T10:41:23.292Z,1005.26
2022-08-14T10:42:23.252Z,1005.27
2022-08-14T10:43:23.256Z,1005.28
2022-08-14T10:44:22.235Z,1005.25
2022-08-14T10:45:22.238Z,1005.26
2022-08-14T10:47:39.808Z,1005.24
2022-08-14T10:47:41.511Z,1005.23
2022-08-14T10:48:34.472Z,1005.22
2022-08-14T10:49:23.381Z,1005.20
2022-08-14T10:50:22.164Z,1005.18
2022-08-14T10:51:22.164Z,1005.11
2022-08-14T10:52:22.200Z,1005.09
2022-08-14T10:53:22.129Z,1005.08
2022-08-14T10:54:35.784Z,1005.09
2022-08-14T10:55:23.127Z,1005.07
2022-08-14T10:56:33.983Z,1005.08
2022-08-14T10:57:23.129Z,1005.04
2022-08-14T10:58:22.093Z,1005.05
2022-08-14T10:59:22.060Z,1004.96
2022-08-14T11:00:30.123Z,1004.95
2022-08-14T11:01:23.037Z,1004.94
2022-08-14T11:02:35.804Z,1004.94
2022-08-14T11:03:26.687Z,1004.89
2022-08-14T11:04:25.873Z,1004.93
2022-08-14T11:05:21.978Z,1004.90
2022-08-14T11:06:21.970Z,1004.90
2022-08-14T11:07:21.958Z,1004.85
2022-08-14T11:08:21.951Z,1004.88
2022-08-14T11:09:22.450Z,1004.85
2022-08-14T11:10:21.911Z,1004.83
2022-08-14T11:11:21.911Z,1004.84
2022-08-14T11:12:33.753Z,1004.76
2022-08-14T11:13:24.223Z,1004.79
2022-08-14T11:14:23.029Z,1004.81
2022-08-14T11:15:21.861Z,1004.77
2022-08-14T11:16:21.842Z,1004.78
2022-08-14T11:17:21.970Z,1004.74
2022-08-14T11:18:32.370Z,1004.74
2022-08-14T11:19:24.270Z,1004.67
2022-08-14T11:20:23.982Z,1004.72
2022-08-14T11:21:21.781Z,1004.67
2022-08-14T11:22:52.944Z,1004.65
2022-08-14T11:23:22.752Z,1004.64
2022-08-14T11:24:53.922Z,1004.62
2022-08-14T11:25:22.801Z,1004.69
2022-08-14T11:26:21.725Z,1004.68
2022-08-14T11:27:25.761Z,1004.68
2022-08-14T11:28:46.395Z,1004.56
2022-08-14T11:29:24.692Z,1004.53
2022-08-14T11:30:49.071Z,1004.59
2022-08-14T11:31:22.694Z,1004.60
2022-08-14T11:32:21.646Z,1004.60
2022-08-14T11:33:21.629Z,1004.59
2022-08-14T11:34:32.325Z,1004.54
2022-08-14T11:35:22.614Z,1004.59
2022-08-14T11:36:21.586Z,1004.50
2022-08-14T11:37:35.288Z,1004.46
2022-08-14T11:38:22.567Z,1004.49
2022-08-14T11:39:33.690Z,1004.46
2022-08-14T11:40:28.500Z,1004.47
2022-08-14T11:41:22.538Z,1004.43
2022-08-14T11:42:56.641Z,1004.44
2022-08-14T11:43:22.627Z,1004.42
2022-08-14T11:44:45.039Z,1004.44
2022-08-14T11:45:23.211Z,1004.51
2022-08-14T11:46:30.292Z,1004.43
2022-08-14T11:47:22.461Z,1004.45
2022-08-14T11:49:02.799Z,1004.43
2022-08-14T11:49:22.459Z,1004.42
2022-08-14T11:50:33.646Z,1004.43
2022-08-14T11:51:24.161Z,1004.45
2022-08-14T11:52:21.602Z,1004.45
2022-08-14T11:53:21.402Z,1004.49
2022-08-14T11:54:34.099Z,1004.50
2022-08-14T11:55:25.583Z,1004.49
2022-08-14T11:56:25.299Z,1004.45
2022-08-14T11:57:22.751Z,1004.47
2022-08-14T11:58:24.350Z,1004.43
2022-08-14T11:59:26.473Z,1004.43
2022-08-14T12:00:22.291Z,1004.36
2022-08-14T12:01:22.295Z,1004.34
2022-08-14T12:03:01.162Z,1004.35
2022-08-14T12:03:37.759Z,1004.34
2022-08-14T12:04:32.449Z,1004.34
2022-08-14T12:05:22.253Z,1004.36